sensor_id;sensor_type;location;lat;lon;timestamp;pressure;altitude;pressure_sealevel;temperature
61390;BMP280;47260;48.274;19.814;2023-02-18T00:00:41;99263.06;;;8.89
61390;BMP280;47260;48.274;19.814;2023-02-18T00:02:14;99265.53;;;8.92
61390;BMP280;47260;48.274;19.814;2023-02-18T00:03:45;99275.50;;;8.92
61390;BMP280;47260;48.274;19.814;2023-02-18T00:05:17;99274.25;;;8.87
61390;BMP280;47260;48.274;19.814;2023-02-18T00:06:48;99272.56;;;8.90
61390;BMP280;47260;48.274;19.814;2023-02-18T00:08:20;99264.50;;;8.84
61390;BMP280;47260;48.274;19.814;2023-02-18T00:09:51;99262.78;;;8.87
61390;BMP280;47260;48.274;19.814;2023-02-18T00:11:22;99262.78;;;8.87
61390;BMP280;47260;48.274;19.814;2023-02-18T00:12:53;99255.25;;;8.85
61390;BMP280;47260;48.274;19.814;2023-02-18T00:14:25;99263.06;;;8.89
61390;BMP280;47260;48.274;19.814;2023-02-18T00:15:59;99265.97;;;8.91
61390;BMP280;47260;48.274;19.814;2023-02-18T00:17:32;99263.59;;;8.93
61390;BMP280;47260;48.274;19.814;2023-02-18T00:19:04;99261.84;;;8.90
61390;BMP280;47260;48.274;19.814;2023-02-18T00:20:37;99261.31;;;8.86
61390;BMP280;47260;48.274;19.814;2023-02-18T00:22:09;99258.91;;;8.82
61390;BMP280;47260;48.274;19.814;2023-02-18T00:23:40;99252.78;;;8.82
61390;BMP280;47260;48.274;19.814;2023-02-18T00:25:11;99250.13;;;8.82
61390;BMP280;47260;48.274;19.814;2023-02-18T00:26:42;99247.94;;;8.80
61390;BMP280;47260;48.274;19.814;2023-02-18T00:28:14;99252.78;;;8.82
61390;BMP280;47260;48.274;19.814;2023-02-18T00:29:45;99247.94;;;8.86
61390;BMP280;47260;48.274;19.814;2023-02-18T00:31:17;99253.78;;;8.84
61390;BMP280;47260;48.274;19.814;2023-02-18T00:32:49;99256.22;;;8.82
61390;BMP280;47260;48.274;19.814;2023-02-18T00:34:20;99250.06;;;8.76
61390;BMP280;47260;48.274;19.814;2023-02-18T00:35:52;99239.38;;;8.76
61390;BMP280;47260;48.274;19.814;2023-02-18T00:37:22;99234.25;;;8.78
61390;BMP280;47260;48.274;19.814;2023-02-18T00:38:55;99228.72;;;8.82
61390;BMP280;47260;48.274;19.814;2023-02-18T00:40:25;99225.78;;;8.80
61390;BMP280;47260;48.274;19.814;2023-02-18T00:41:57;99224.09;;;8.82
61390;BMP280;47260;48.274;19.814;2023-02-18T00:43:29;99224.09;;;8.82
61390;BMP280;47260;48.274;19.814;2023-02-18T00:45:01;99223.84;;;8.80
61390;BMP280;47260;48.274;19.814;2023-02-18T00:46:33;99224.84;;;8.83
61390;BMP280;47260;48.274;19.814;2023-02-18T00:48:05;99219.72;;;8.85
61390;BMP280;47260;48.274;19.814;2023-02-18T00:49:37;99211.44;;;8.83
61390;BMP280;47260;48.274;19.814;2023-02-18T00:51:09;99215.34;;;8.87
61390;BMP280;47260;48.274;19.814;2023-02-18T00:52:40;99214.13;;;8.88
61390;BMP280;47260;48.274;19.814;2023-02-18T00:54:11;99217.06;;;8.96
61390;BMP280;47260;48.274;19.814;2023-02-18T00:55:42;99218.06;;;8.93
61390;BMP280;47260;48.274;19.814;2023-02-18T00:57:14;99195.19;;;8.92
61390;BMP280;47260;48.274;19.814;2023-02-18T00:58:46;99201.28;;;8.92
61390;BMP280;47260;48.274;19.814;2023-02-18T01:00:17;99205.91;;;8.97
61390;BMP280;47260;48.274;19.814;2023-02-18T01:01:49;99203.97;;;8.98
61390;BMP280;47260;48.274;19.814;2023-02-18T01:03:22;99200.06;;;8.99
61390;BMP280;47260;48.274;19.814;2023-02-18T01:04:53;99203.47;;;8.94
61390;BMP280;47260;48.274;19.814;2023-02-18T01:06:24;99185.22;;;8.98
61390;BMP280;47260;48.274;19.814;2023-02-18T01:07:56;99185.47;;;9.00
61390;BMP280;47260;48.274;19.814;2023-02-18T01:09:26;99192.56;;;9.03
61390;BMP280;47260;48.274;19.814;2023-02-18T01:10:58;99186.19;;;9.06
61390;BMP280;47260;48.274;19.814;2023-02-18T01:12:29;99188.41;;;9.08
61390;BMP280;47260;48.274;19.814;2023-02-18T01:14:00;99193.53;;;9.11
61390;BMP280;47260;48.274;19.814;2023-02-18T01:15:33;99181.38;;;9.10
61390;BMP280;47260;48.274;19.814;2023-02-18T01:17:04;99179.44;;;9.11
61390;BMP280;47260;48.274;19.814;2023-02-18T01:18:37;99183.31;;;9.10
61390;BMP280;47260;48.274;19.814;2023-02-18T01:20:09;99179.69;;;9.13
61390;BMP280;47260;48.274;19.814;2023-02-18T01:21:41;99169.44;;;9.17
61390;BMP280;47260;48.274;19.814;2023-02-18T01:23:13;99175.75;;;9.14
61390;BMP280;47260;48.274;19.814;2023-02-18T01:24:43;99167.00;;;9.13
61390;BMP280;47260;48.274;19.814;2023-02-18T01:26:15;99158.28;;;9.18
61390;BMP280;47260;48.274;19.814;2023-02-18T01:27:46;99162.66;;;9.27
61390;BMP280;47260;48.274;19.814;2023-02-18T01:29:18;99155.88;;;9.31
61390;BMP280;47260;48.274;19.814;2023-02-18T01:30:49;99158.78;;;9.33
61390;BMP280;47260;48.274;19.814;2023-02-18T01:32:20;99154.41;;;9.36
61390;BMP280;47260;48.274;19.814;2023-02-18T01:33:55;99160.75;;;9.38
61390;BMP280;47260;48.274;19.814;2023-02-18T01:35:26;99157.06;;;9.41
61390;BMP280;47260;48.274;19.814;2023-02-18T01:36:58;99161.97;;;9.43
61390;BMP280;47260;48.274;19.814;2023-02-18T01:38:30;99154.91;;;9.51
61390;BMP280;47260;48.274;19.814;2023-02-18T01:40:01;99152.75;;;9.55
61390;BMP280;47260;48.274;19.814;2023-02-18T01:41:33;99148.13;;;9.77
61390;BMP280;47260;48.274;19.814;2023-02-18T01:43:05;99153.72;;;9.85
61390;BMP280;47260;48.274;19.814;2023-02-18T01:44:35;99157.84;;;9.86
61390;BMP280;47260;48.274;19.814;2023-02-18T01:46:14;99153.22;;;9.81
61390;BMP280;47260;48.274;19.814;2023-02-18T01:47:48;99150.06;;;9.82
61390;BMP280;47260;48.274;19.814;2023-02-18T01:49:22;99149.81;;;9.86
61390;BMP280;47260;48.274;19.814;2023-02-18T01:50:55;99154.97;;;10.01
61390;BMP280;47260;48.274;19.814;2023-02-18T01:52:26;99153.22;;;9.98
61390;BMP280;47260;48.274;19.814;2023-02-18T01:54:02;99147.88;;;9.98
61390;BMP280;47260;48.274;19.814;2023-02-18T01:55:37;99149.53;;;10.12
61390;BMP280;47260;48.274;19.814;2023-02-18T01:57:10;99155.88;;;10.20
61390;BMP280;47260;48.274;19.814;2023-02-18T01:58:43;99154.91;;;10.23
61390;BMP280;47260;48.274;19.814;2023-02-18T02:00:17;99157.34;;;10.26
61390;BMP280;47260;48.274;19.814;2023-02-18T02:01:51;99153.94;;;10.26
61390;BMP280;47260;48.274;19.814;2023-02-18T02:03:23;99150.75;;;10.33
61390;BMP280;47260;48.274;19.814;2023-02-18T02:04:56;99161.72;;;10.35
61390;BMP280;47260;48.274;19.814;2023-02-18T02:06:26;99154.16;;;10.33
61390;BMP280;47260;48.274;19.814;2023-02-18T02:07:58;99151.97;;;10.32
61390;BMP280;47260;48.274;19.814;2023-02-18T02:09:29;99148.53;;;10.31
61390;BMP280;47260;48.274;19.814;2023-02-18T02:11:04;99152.94;;;10.34
61390;BMP280;47260;48.274;19.814;2023-02-18T02:12:40;99151.69;;;10.41
61390;BMP280;47260;48.274;19.814;2023-02-18T02:14:16;99153.16;;;10.42
61390;BMP280;47260;48.274;19.814;2023-02-18T02:15:49;99157.56;;;10.39
61390;BMP280;47260;48.274;19.814;2023-02-18T02:17:25;99153.69;;;10.35
61390;BMP280;47260;48.274;19.814;2023-02-18T02:18:59;99137.03;;;10.47
61390;BMP280;47260;48.274;19.814;2023-02-18T02:22:44;99146.59;;;10.43
61390;BMP280;47260;48.274;19.814;2023-02-18T02:24:30;99148.97;;;10.52
61390;BMP280;47260;48.274;19.814;2023-02-18T02:26:25;99151.66;;;10.52
61390;BMP280;47260;48.274;19.814;2023-02-18T02:28:11;99163.84;;;10.53
61390;BMP280;47260;48.274;19.814;2023-02-18T02:29:54;99157.03;;;10.57
61390;BMP280;47260;48.274;19.814;2023-02-18T02:31:36;99152.59;;;10.60
61390;BMP280;47260;48.274;19.814;2023-02-18T02:34:58;99155.78;;;10.58
61390;BMP280;47260;48.274;19.814;2023-02-18T02:36:33;99151.91;;;10.59
61390;BMP280;47260;48.274;19.814;2023-02-18T02:38:09;99165.06;;;10.57
61390;BMP280;47260;48.274;19.814;2023-02-18T02:39:45;99174.31;;;10.62
61390;BMP280;47260;48.274;19.814;2023-02-18T02:41:20;99164.34;;;10.57
61390;BMP280;47260;48.274;19.814;2023-02-18T02:42:58;99171.91;;;10.53
61390;BMP280;47260;48.274;19.814;2023-02-18T02:44:36;99167.75;;;10.52
61390;BMP280;47260;48.274;19.814;2023-02-18T02:46:10;99160.94;;;10.51
61390;BMP280;47260;48.274;19.814;2023-02-18T02:47:44;99170.69;;;10.54
61390;BMP280;47260;48.274;19.814;2023-02-18T02:49:23;99175.31;;;10.53
61390;BMP280;47260;48.274;19.814;2023-02-18T02:51:03;99175.31;;;10.59
61390;BMP280;47260;48.274;19.814;2023-02-18T02:52:36;99171.84;;;10.69
61390;BMP280;47260;48.274;19.814;2023-02-18T02:54:11;99181.84;;;10.69
61390;BMP280;47260;48.274;19.814;2023-02-18T02:55:43;99185.28;;;10.64
61390;BMP280;47260;48.274;19.814;2023-02-18T02:59:17;99183.78;;;10.68
61390;BMP280;47260;48.274;19.814;2023-02-18T03:00:54;99183.34;;;10.64
61390;BMP280;47260;48.274;19.814;2023-02-18T03:02:28;99187.75;;;10.62
61390;BMP280;47260;48.274;19.814;2023-02-18T03:04:12;99182.84;;;10.66
61390;BMP280;47260;48.274;19.814;2023-02-18T03:09:35;99194.75;;;10.76
61390;BMP280;47260;48.274;19.814;2023-02-18T03:11:10;99195.28;;;10.74
61390;BMP280;47260;48.274;19.814;2023-02-18T03:12:45;99196.22;;;10.77
61390;BMP280;47260;48.274;19.814;2023-02-18T03:14:18;99193.78;;;10.79
61390;BMP280;47260;48.274;19.814;2023-02-18T03:15:54;99202.06;;;10.81
61390;BMP280;47260;48.274;19.814;2023-02-18T03:17:25;99201.09;;;10.90
61390;BMP280;47260;48.274;19.814;2023-02-18T03:19:00;99197.88;;;10.91
61390;BMP280;47260;48.274;19.814;2023-02-18T03:20:33;99191.53;;;10.94
61390;BMP280;47260;48.274;19.814;2023-02-18T03:22:05;99200.09;;;10.98
61390;BMP280;47260;48.274;19.814;2023-02-18T03:23:41;99215.44;;;11.03
61390;BMP280;47260;48.274;19.814;2023-02-18T03:25:16;99220.56;;;11.01
61390;BMP280;47260;48.274;19.814;2023-02-18T03:26:49;99217.88;;;11.01
61390;BMP280;47260;48.274;19.814;2023-02-18T03:28:23;99232.78;;;11.02
61390;BMP280;47260;48.274;19.814;2023-02-18T03:29:56;99233.00;;;11.04
61390;BMP280;47260;48.274;19.814;2023-02-18T03:31:30;99220.56;;;11.01
61390;BMP280;47260;48.274;19.814;2023-02-18T03:33:03;99218.16;;;10.92
61390;BMP280;47260;48.274;19.814;2023-02-18T03:34:34;99215.25;;;10.90
61390;BMP280;47260;48.274;19.814;2023-02-18T03:36:08;99227.22;;;10.89
61390;BMP280;47260;48.274;19.814;2023-02-18T03:37:41;99217.94;;;10.84
61390;BMP280;47260;48.274;19.814;2023-02-18T03:39:13;99235.78;;;10.82
61390;BMP280;47260;48.274;19.814;2023-02-18T03:40:46;99223.31;;;10.79
61390;BMP280;47260;48.274;19.814;2023-02-18T03:42:18;99233.59;;;10.80
61390;BMP280;47260;48.274;19.814;2023-02-18T03:43:50;99235.25;;;10.83
61390;BMP280;47260;48.274;19.814;2023-02-18T03:45:21;99232.34;;;10.81
61390;BMP280;47260;48.274;19.814;2023-02-18T03:46:52;99222.84;;;10.80
61390;BMP280;47260;48.274;19.814;2023-02-18T03:48:23;99228.69;;;10.84
61390;BMP280;47260;48.274;19.814;2023-02-18T03:49:56;99220.84;;;10.87
61390;BMP280;47260;48.274;19.814;2023-02-18T03:51:27;99226.72;;;10.85
61390;BMP280;47260;48.274;19.814;2023-02-18T03:52:59;99223.84;;;10.83
61390;BMP280;47260;48.274;19.814;2023-02-18T03:54:30;99228.69;;;10.84
61390;BMP280;47260;48.274;19.814;2023-02-18T03:56:03;99233.53;;;10.92
61390;BMP280;47260;48.274;19.814;2023-02-18T03:57:34;99237.47;;;10.91
61390;BMP280;47260;48.274;19.814;2023-02-18T03:59:05;99240.38;;;10.93
61390;BMP280;47260;48.274;19.814;2023-02-18T04:00:36;99234.03;;;10.96
61390;BMP280;47260;48.274;19.814;2023-02-18T04:02:08;99239.13;;;10.99
61390;BMP280;47260;48.274;19.814;2023-02-18T04:03:39;99251.84;;;10.99
61390;BMP280;47260;48.274;19.814;2023-02-18T04:05:11;99247.47;;;10.96
61390;BMP280;47260;48.274;19.814;2023-02-18T04:06:42;99246.19;;;11.02
61390;BMP280;47260;48.274;19.814;2023-02-18T04:08:14;99257.94;;;11.05
61390;BMP280;47260;48.274;19.814;2023-02-18T04:09:45;99252.06;;;11.06
61390;BMP280;47260;48.274;19.814;2023-02-18T04:11:17;99259.34;;;11.11
61390;BMP280;47260;48.274;19.814;2023-02-18T04:12:48;99265.00;;;11.13
61390;BMP280;47260;48.274;19.814;2023-02-18T04:14:19;99250.75;;;11.18
61390;BMP280;47260;48.274;19.814;2023-02-18T04:15:50;99263.94;;;11.27
61390;BMP280;47260;48.274;19.814;2023-02-18T04:17:21;99269.22;;;11.38
61390;BMP280;47260;48.274;19.814;2023-02-18T04:18:52;99263.19;;;11.32
61390;BMP280;47260;48.274;19.814;2023-02-18T04:20:24;99268.31;;;11.30
61390;BMP280;47260;48.274;19.814;2023-02-18T04:21:55;99267.06;;;11.37
61390;BMP280;47260;48.274;19.814;2023-02-18T04:23:27;99278.06;;;11.33
61390;BMP280;47260;48.274;19.814;2023-02-18T04:24:58;99276.34;;;11.36
61390;BMP280;47260;48.274;19.814;2023-02-18T04:26:32;99277.34;;;11.33
61390;BMP280;47260;48.274;19.814;2023-02-18T04:28:02;99280.25;;;11.40
61390;BMP280;47260;48.274;19.814;2023-02-18T04:29:34;99271.44;;;11.40
61390;BMP280;47260;48.274;19.814;2023-02-18T04:31:05;99285.16;;;11.31
61390;BMP280;47260;48.274;19.814;2023-02-18T04:32:37;99279.13;;;11.19
61390;BMP280;47260;48.274;19.814;2023-02-18T04:34:08;99279.63;;;11.18
61390;BMP280;47260;48.274;19.814;2023-02-18T04:35:40;99278.84;;;11.23
61390;BMP280;47260;48.274;19.814;2023-02-18T04:37:11;99265.66;;;11.25
61390;BMP280;47260;48.274;19.814;2023-02-18T04:38:43;99263.94;;;11.27
61390;BMP280;47260;48.274;19.814;2023-02-18T04:40:14;99267.56;;;11.30
61390;BMP280;47260;48.274;19.814;2023-02-18T04:41:47;99269.56;;;11.24
61390;BMP280;47260;48.274;19.814;2023-02-18T04:43:19;99268.31;;;11.30
61390;BMP280;47260;48.274;19.814;2023-02-18T04:44:51;99262.94;;;11.30
61390;BMP280;47260;48.274;19.814;2023-02-18T04:46:22;99270.97;;;11.36
61390;BMP280;47260;48.274;19.814;2023-02-18T04:47:54;99270.75;;;11.28
61390;BMP280;47260;48.274;19.814;2023-02-18T04:49:25;99271.72;;;11.31
61390;BMP280;47260;48.274;19.814;2023-02-18T04:50:57;99277.84;;;11.26
61390;BMP280;47260;48.274;19.814;2023-02-18T04:52:28;99279.13;;;11.14
61390;BMP280;47260;48.274;19.814;2023-02-18T04:54:00;99286.72;;;11.10
61390;BMP280;47260;48.274;19.814;2023-02-18T04:55:31;99283.56;;;11.00
61390;BMP280;47260;48.274;19.814;2023-02-18T04:57:04;99288.97;;;10.89
61390;BMP280;47260;48.274;19.814;2023-02-18T04:58:35;99299.25;;;10.79
61390;BMP280;47260;48.274;19.814;2023-02-18T05:00:08;99285.59;;;10.66
61390;BMP280;47260;48.274;19.814;2023-02-18T05:01:40;99291.19;;;10.68
61390;BMP280;47260;48.274;19.814;2023-02-18T05:03:10;99299.25;;;10.68
61390;BMP280;47260;48.274;19.814;2023-02-18T05:04:42;99290.75;;;10.64
61390;BMP280;47260;48.274;19.814;2023-02-18T05:06:13;99282.44;;;10.62
61390;BMP280;47260;48.274;19.814;2023-02-18T05:07:45;99304.66;;;10.63
61390;BMP280;47260;48.274;19.814;2023-02-18T05:09:16;99294.41;;;10.56
61390;BMP280;47260;48.274;19.814;2023-02-18T05:10:48;99290.72;;;10.53
61390;BMP280;47260;48.274;19.814;2023-02-18T05:12:21;99299.53;;;10.48
61390;BMP280;47260;48.274;19.814;2023-02-18T05:13:52;99291.00;;;10.50
61390;BMP280;47260;48.274;19.814;2023-02-18T05:15:24;99310.28;;;10.43
61390;BMP280;47260;48.274;19.814;2023-02-18T05:16:55;99318.78;;;10.36
61390;BMP280;47260;48.274;19.814;2023-02-18T05:18:27;99306.63;;;10.40
61390;BMP280;47260;48.274;19.814;2023-02-18T05:19:58;99308.06;;;10.36
61390;BMP280;47260;48.274;19.814;2023-02-18T05:21:29;99307.59;;;10.37
61390;BMP280;47260;48.274;19.814;2023-02-18T05:23:00;99308.06;;;10.36
61390;BMP280;47260;48.274;19.814;2023-02-18T05:24:32;99306.84;;;10.37
61390;BMP280;47260;48.274;19.814;2023-02-18T05:26:03;99307.09;;;10.39
61390;BMP280;47260;48.274;19.814;2023-02-18T05:27:36;99312.94;;;10.32
61390;BMP280;47260;48.274;19.814;2023-02-18T05:29:08;99298.56;;;10.35
61390;BMP280;47260;48.274;19.814;2023-02-18T05:30:39;99305.16;;;10.34
61390;BMP280;47260;48.274;19.814;2023-02-18T05:32:10;99309.06;;;10.33
61390;BMP280;47260;48.274;19.814;2023-02-18T05:33:41;99308.53;;;10.29
61390;BMP280;47260;48.274;19.814;2023-02-18T05:35:13;99305.88;;;10.34
61390;BMP280;47260;48.274;19.814;2023-02-18T05:36:44;99300.28;;;10.38
61390;BMP280;47260;48.274;19.814;2023-02-18T05:38:16;99312.22;;;10.31
61390;BMP280;47260;48.274;19.814;2023-02-18T05:39:46;99314.69;;;10.35
61390;BMP280;47260;48.274;19.814;2023-02-18T05:41:17;99324.16;;;10.36
61390;BMP280;47260;48.274;19.814;2023-02-18T05:42:51;99331.50;;;10.41
61390;BMP280;47260;48.274;19.814;2023-02-18T05:44:22;99343.72;;;10.42
61390;BMP280;47260;48.274;19.814;2023-02-18T05:46:02;99339.06;;;10.42
61390;BMP280;47260;48.274;19.814;2023-02-18T05:47:34;99337.56;;;10.36
61390;BMP280;47260;48.274;19.814;2023-02-18T05:49:05;99344.66;;;10.44
61390;BMP280;47260;48.274;19.814;2023-02-18T05:50:37;99352.00;;;10.49
61390;BMP280;47260;48.274;19.814;2023-02-18T05:52:09;99347.13;;;10.48
61390;BMP280;47260;48.274;19.814;2023-02-18T05:53:41;99357.38;;;10.49
61390;BMP280;47260;48.274;19.814;2023-02-18T05:55:12;99352.00;;;10.55
61390;BMP280;47260;48.274;19.814;2023-02-18T05:56:43;99367.88;;;10.53
61390;BMP280;47260;48.274;19.814;2023-02-18T05:58:16;99369.34;;;10.59
61390;BMP280;47260;48.274;19.814;2023-02-18T05:59:48;99374.72;;;10.65
61390;BMP280;47260;48.274;19.814;2023-02-18T06:01:19;99384.22;;;10.66
61390;BMP280;47260;48.274;19.814;2023-02-18T06:02:51;99382.25;;;10.72
61390;BMP280;47260;48.274;19.814;2023-02-18T06:04:22;99384.22;;;10.71
61390;BMP280;47260;48.274;19.814;2023-02-18T06:05:54;99387.88;;;10.74
61390;BMP280;47260;48.274;19.814;2023-02-18T06:07:24;99393.47;;;10.76
61390;BMP280;47260;48.274;19.814;2023-02-18T06:08:56;99393.75;;;10.72
61390;BMP280;47260;48.274;19.814;2023-02-18T06:10:27;99398.16;;;10.75
61390;BMP280;47260;48.274;19.814;2023-02-18T06:11:59;99389.81;;;10.79
61390;BMP280;47260;48.274;19.814;2023-02-18T06:13:32;99384.94;;;10.77
61390;BMP280;47260;48.274;19.814;2023-02-18T06:15:03;99390.31;;;10.77
61390;BMP280;47260;48.274;19.814;2023-02-18T06:16:35;99394.94;;;10.77
61390;BMP280;47260;48.274;19.814;2023-02-18T06:18:06;99398.84;;;10.76
61390;BMP280;47260;48.274;19.814;2023-02-18T06:19:37;99393.75;;;10.78
61390;BMP280;47260;48.274;19.814;2023-02-18T06:21:09;99405.19;;;10.84
61390;BMP280;47260;48.274;19.814;2023-02-18T06:22:39;99398.63;;;10.85
61390;BMP280;47260;48.274;19.814;2023-02-18T06:24:11;99389.09;;;10.90
61390;BMP280;47260;48.274;19.814;2023-02-18T06:25:42;99388.34;;;10.95
61390;BMP280;47260;48.274;19.814;2023-02-18T06:27:13;99389.31;;;11.03
61390;BMP280;47260;48.274;19.814;2023-02-18T06:28:46;99389.78;;;11.01
61390;BMP280;47260;48.274;19.814;2023-02-18T06:30:17;99391.50;;;11.04
61390;BMP280;47260;48.274;19.814;2023-02-18T06:31:49;99392.25;;;11.05
61390;BMP280;47260;48.274;19.814;2023-02-18T06:33:20;99393.72;;;11.00
61390;BMP280;47260;48.274;19.814;2023-02-18T06:34:51;99398.88;;;10.98
61390;BMP280;47260;48.274;19.814;2023-02-18T06:36:23;99393.72;;;11.06
61390;BMP280;47260;48.274;19.814;2023-02-18T06:37:54;99390.75;;;11.09
61390;BMP280;47260;48.274;19.814;2023-02-18T06:39:26;99391.50;;;11.15
61390;BMP280;47260;48.274;19.814;2023-02-18T06:40:57;99393.16;;;11.24
61390;BMP280;47260;48.274;19.814;2023-02-18T06:42:28;99401.97;;;11.30
61390;BMP280;47260;48.274;19.814;2023-02-18T06:44:00;99389.97;;;11.36
61390;BMP280;47260;48.274;19.814;2023-02-18T06:45:32;99398.25;;;11.38
61390;BMP280;47260;48.274;19.814;2023-02-18T06:47:03;99390.19;;;11.44
61390;BMP280;47260;48.274;19.814;2023-02-18T06:48:35;99398.25;;;11.49
61390;BMP280;47260;48.274;19.814;2023-02-18T06:50:06;99399.44;;;11.54
61390;BMP280;47260;48.274;19.814;2023-02-18T06:51:37;99403.84;;;11.57
61390;BMP280;47260;48.274;19.814;2023-02-18T06:53:09;99399.94;;;11.58
61390;BMP280;47260;48.274;19.814;2023-02-18T06:54:40;99407.25;;;11.63
61390;BMP280;47260;48.274;19.814;2023-02-18T06:56:11;99405.75;;;11.67
61390;BMP280;47260;48.274;19.814;2023-02-18T06:57:43;99406.47;;;11.73
61390;BMP280;47260;48.274;19.814;2023-02-18T06:59:15;99406.69;;;11.75
61390;BMP280;47260;48.274;19.814;2023-02-18T07:00:47;99413.06;;;11.78
61390;BMP280;47260;48.274;19.814;2023-02-18T07:02:17;99413.06;;;11.78
61390;BMP280;47260;48.274;19.814;2023-02-18T07:03:49;99404.94;;;11.83
61390;BMP280;47260;48.274;19.814;2023-02-18T07:05:20;99416.91;;;11.88
61390;BMP280;47260;48.274;19.814;2023-02-18T07:06:52;99422.06;;;11.86
61390;BMP280;47260;48.274;19.814;2023-02-18T07:08:23;99412.25;;;11.89
61390;BMP280;47260;48.274;19.814;2023-02-18T07:09:55;99414.94;;;11.89
61390;BMP280;47260;48.274;19.814;2023-02-18T07:11:26;99410.06;;;11.87
61390;BMP280;47260;48.274;19.814;2023-02-18T07:12:58;99412.53;;;11.85
61390;BMP280;47260;48.274;19.814;2023-02-18T07:14:31;99402.75;;;11.88
61390;BMP280;47260;48.274;19.814;2023-02-18T07:16:02;99408.88;;;11.82
61390;BMP280;47260;48.274;19.814;2023-02-18T07:17:34;99401.03;;;11.85
61390;BMP280;47260;48.274;19.814;2023-02-18T07:19:05;99410.28;;;11.89
61390;BMP280;47260;48.274;19.814;2023-02-18T07:20:37;99406.38;;;11.90
61390;BMP280;47260;48.274;19.814;2023-02-18T07:22:08;99405.88;;;11.92
61390;BMP280;47260;48.274;19.814;2023-02-18T07:23:40;99412.97;;;11.95
61390;BMP280;47260;48.274;19.814;2023-02-18T07:25:11;99414.16;;;11.99
61390;BMP280;47260;48.274;19.814;2023-02-18T07:26:43;99416.84;;;11.99
61390;BMP280;47260;48.274;19.814;2023-02-18T07:28:14;99417.84;;;11.96
61390;BMP280;47260;48.274;19.814;2023-02-18T07:29:47;99423.94;;;11.97
61390;BMP280;47260;48.274;19.814;2023-02-18T07:31:19;99428.84;;;11.98
61390;BMP280;47260;48.274;19.814;2023-02-18T07:32:50;99433.66;;;12.11
61390;BMP280;47260;48.274;19.814;2023-02-18T07:34:22;99438.56;;;12.12
61390;BMP280;47260;48.274;19.814;2023-02-18T07:35:53;99426.81;;;12.10
61390;BMP280;47260;48.274;19.814;2023-02-18T07:37:25;99429.25;;;12.13
61390;BMP280;47260;48.274;19.814;2023-02-18T07:38:56;99414.34;;;12.12
61390;BMP280;47260;48.274;19.814;2023-02-18T07:40:28;99417.78;;;12.07
61390;BMP280;47260;48.274;19.814;2023-02-18T07:42:00;99420.69;;;12.15
61390;BMP280;47260;48.274;19.814;2023-02-18T07:43:36;99422.66;;;12.14
61390;BMP280;47260;48.274;19.814;2023-02-18T07:45:09;99414.31;;;12.18
61390;BMP280;47260;48.274;19.814;2023-02-18T07:46:41;99415.50;;;12.17
61390;BMP280;47260;48.274;19.814;2023-02-18T07:48:12;99407.97;;;12.15
61390;BMP280;47260;48.274;19.814;2023-02-18T07:49:44;99417.91;;;12.26
61390;BMP280;47260;48.274;19.814;2023-02-18T07:51:15;99409.59;;;12.24
61390;BMP280;47260;48.274;19.814;2023-02-18T07:52:47;99417.66;;;12.29
61390;BMP280;47260;48.274;19.814;2023-02-18T07:54:18;99412.91;;;12.41
61390;BMP280;47260;48.274;19.814;2023-02-18T07:55:50;99406.50;;;12.49
61390;BMP280;47260;48.274;19.814;2023-02-18T07:57:21;99414.84;;;12.46
61390;BMP280;47260;48.274;19.814;2023-02-18T07:58:53;99419.19;;;12.54
61390;BMP280;47260;48.274;19.814;2023-02-18T08:00:26;99419.78;;;12.71
61390;BMP280;47260;48.274;19.814;2023-02-18T08:01:57;99419.56;;;12.69
61390;BMP280;47260;48.274;19.814;2023-02-18T08:03:30;99423.44;;;12.74
61390;BMP280;47260;48.274;19.814;2023-02-18T08:05:01;99415.13;;;12.72
61390;BMP280;47260;48.274;19.814;2023-02-18T08:06:34;99424.31;;;12.88
61390;BMP280;47260;48.274;19.814;2023-02-18T08:08:06;99426.28;;;12.87
61390;BMP280;47260;48.274;19.814;2023-02-18T08:09:37;99416.34;;;12.71
61390;BMP280;47260;48.274;19.814;2023-02-18T08:11:09;99412.66;;;12.74
61390;BMP280;47260;48.274;19.814;2023-02-18T08:12:40;99421.72;;;12.76
61390;BMP280;47260;48.274;19.814;2023-02-18T08:14:12;99431.94;;;12.83
61390;BMP280;47260;48.274;19.814;2023-02-18T08:15:45;99413.59;;;12.82
61390;BMP280;47260;48.274;19.814;2023-02-18T08:17:16;99419.28;;;12.73
61390;BMP280;47260;48.274;19.814;2023-02-18T08:18:48;99417.31;;;12.73
61390;BMP280;47260;48.274;19.814;2023-02-18T08:20:20;99423.56;;;12.63
61390;BMP280;47260;48.274;19.814;2023-02-18T08:21:51;99428.94;;;12.57
61390;BMP280;47260;48.274;19.814;2023-02-18T08:23:23;99426.34;;;12.46
61390;BMP280;47260;48.274;19.814;2023-02-18T08:24:55;99422.88;;;12.51
61390;BMP280;47260;48.274;19.814;2023-02-18T08:26:27;99433.28;;;12.36
61390;BMP280;47260;48.274;19.814;2023-02-18T08:27:58;99431.63;;;12.28
61390;BMP280;47260;48.274;19.814;2023-02-18T08:29:30;99441.00;;;12.10
61390;BMP280;47260;48.274;19.814;2023-02-18T08:31:03;99445.25;;;12.00
61390;BMP280;47260;48.274;19.814;2023-02-18T08:32:34;99451.84;;;11.94
61390;BMP280;47260;48.274;19.814;2023-02-18T08:34:06;99448.94;;;11.86
61390;BMP280;47260;48.274;19.814;2023-02-18T08:35:38;99451.91;;;11.82
61390;BMP280;47260;48.274;19.814;2023-02-18T08:37:10;99453.63;;;11.74
61390;BMP280;47260;48.274;19.814;2023-02-18T08:38:41;99461.94;;;11.76
61390;BMP280;47260;48.274;19.814;2023-02-18T08:40:13;99459.03;;;11.74
61390;BMP280;47260;48.274;19.814;2023-02-18T08:41:44;99466.13;;;11.72
61390;BMP280;47260;48.274;19.814;2023-02-18T08:43:16;99466.63;;;11.70
61390;BMP280;47260;48.274;19.814;2023-02-18T08:44:48;99460.00;;;11.71
61390;BMP280;47260;48.274;19.814;2023-02-18T08:46:21;99460.50;;;11.70
61390;BMP280;47260;48.274;19.814;2023-02-18T08:47:52;99462.00;;;11.65
61390;BMP280;47260;48.274;19.814;2023-02-18T08:49:24;99452.97;;;11.63
61390;BMP280;47260;48.274;19.814;2023-02-18T08:50:56;99458.56;;;11.70
61390;BMP280;47260;48.274;19.814;2023-02-18T08:52:27;99459.03;;;11.80
61390;BMP280;47260;48.274;19.814;2023-02-18T08:53:59;99457.53;;;11.79
61390;BMP280;47260;48.274;19.814;2023-02-18T08:55:31;99456.53;;;11.82